Time;durP1;ratioP1;P1;durP2;ratioP2;P2;SDS_P1;SDS_P2;PMS_P1;PMS_P2;Temp;Humidity;BMP_temperature;BMP_pressure;BME280_temperature;BME280_humidity;BME280_pressure;Samples;Min_cycle;Max_cycle;Signal;HPM_P1;HPM_P2
2020/12/29 00:00:53;;;;;;;17.20;3.78;;;12.60;77.20;;;;;;5012314;28;20053;-79
2020/12/29 00:03:57;;;;;;;22.27;3.73;;;12.60;76.90;;;;;;5011842;28;20052;-80
2020/12/29 00:07:01;;;;;;;14.90;2.72;;;12.60;77.20;;;;;;5011123;28;20049;-79
2020/12/29 00:10:04;;;;;;;17.40;3.00;;;12.50;77.60;;;;;;5012181;28;20041;-80
2020/12/29 00:13:09;;;;;;;15.55;3.00;;;12.50;77.50;;;;;;5011754;28;20060;-80
2020/12/29 00:16:13;;;;;;;19.20;2.88;;;12.50;77.70;;;;;;5011717;28;20121;-79
2020/12/29 00:19:22;;;;;;;14.57;3.17;;;12.50;76.80;;;;;;5012119;28;20037;-79
2020/12/29 00:22:26;;;;;;;14.63;3.35;;;12.50;77.30;;;;;;5012139;28;20048;-79
2020/12/29 00:25:30;;;;;;;16.20;3.78;;;12.40;77.30;;;;;;5011045;28;20029;-79
2020/12/29 00:28:33;;;;;;;15.73;3.65;;;12.30;77.00;;;;;;5011886;28;20052;-79
2020/12/29 00:31:37;;;;;;;14.63;3.00;;;12.30;76.90;;;;;;5011886;28;20057;-79
2020/12/29 00:34:41;;;;;;;14.40;2.67;;;12.30;77.20;;;;;;5011467;28;20060;-79
2020/12/29 00:37:46;;;;;;;19.80;3.05;;;12.20;76.90;;;;;;5011609;28;20408;-79
2020/12/29 00:40:50;;;;;;;16.02;2.60;;;12.20;76.30;;;;;;5010972;28;20053;-79
2020/12/29 00:43:54;;;;;;;10.85;2.42;;;12.20;75.70;;;;;;5011478;28;20389;-79
2020/12/29 00:46:58;;;;;;;17.10;2.45;;;12.20;75.50;;;;;;5011534;28;20076;-79
2020/12/29 00:50:02;;;;;;;13.10;2.53;;;12.20;75.80;;;;;;5010925;28;20057;-79
2020/12/29 00:53:08;;;;;;;14.15;2.72;;;12.20;75.80;;;;;;5010804;28;20041;-79
2020/12/29 00:56:21;;;;;;;20.85;3.85;;;12.10;76.20;;;;;;5010733;28;20066;-79
2020/12/29 00:59:29;;;;;;;10.57;2.70;;;12.00;76.70;;;;;;5010712;28;20501;-79
2020/12/29 01:02:33;;;;;;;13.80;2.90;;;12.00;78.40;;;;;;5010604;28;20049;-79
2020/12/29 01:05:54;;;;;;;10.88;2.75;;;11.90;78.50;;;;;;5010448;28;20049;-79
2020/12/29 01:08:58;;;;;;;8.13;2.28;;;11.90;79.70;;;;;;5010599;28;20048;-79
2020/12/29 01:12:04;;;;;;;20.10;2.83;;;11.90;79.60;;;;;;5010414;28;20057;-79
2020/12/29 01:15:08;;;;;;;10.85;2.30;;;11.90;78.80;;;;;;5010534;28;20238;-79
2020/12/29 01:18:32;;;;;;;14.55;2.40;;;12.00;79.40;;;;;;5011470;28;20049;-79
2020/12/29 01:21:36;;;;;;;15.32;2.47;;;11.80;78.90;;;;;;5012958;28;20500;-79
2020/12/29 01:24:41;;;;;;;18.33;2.65;;;11.70;79.50;;;;;;5011681;28;20082;-79
2020/12/29 01:27:48;;;;;;;15.73;2.63;;;11.60;80.70;;;;;;5011311;28;20049;-79
2020/12/29 01:30:52;;;;;;;14.68;2.45;;;11.50;80.20;;;;;;5011629;28;20441;-79
2020/12/29 01:33:58;;;;;;;9.57;2.42;;;11.40;80.00;;;;;;5011786;28;20052;-79
2020/12/29 01:37:01;;;;;;;18.27;3.13;;;11.40;80.60;;;;;;5011512;28;20034;-79
2020/12/29 01:40:05;;;;;;;12.48;2.78;;;11.20;80.70;;;;;;5011708;28;20045;-79
2020/12/29 01:43:10;;;;;;;11.48;2.55;;;11.10;80.90;;;;;;5011695;28;20041;-79
2020/12/29 01:46:15;;;;;;;10.90;2.38;;;11.10;82.10;;;;;;5011270;28;20400;-79
2020/12/29 01:49:19;;;;;;;6.95;2.03;;;11.10;81.90;;;;;;5011040;28;20061;-79
2020/12/29 01:52:23;;;;;;;15.30;3.15;;;11.00;82.50;;;;;;5012324;28;20046;-79
2020/12/29 01:55:28;;;;;;;13.38;2.58;;;10.90;82.60;;;;;;5014486;28;20140;-79
2020/12/29 01:58:34;;;;;;;18.52;3.88;;;10.90;83.20;;;;;;5025351;28;20037;-78
2020/12/29 02:01:43;;;;;;;24.65;3.65;;;10.90;82.00;;;;;;5013596;28;20495;-79
2020/12/29 02:04:48;;;;;;;11.55;2.90;;;10.80;82.60;;;;;;5024997;28;20048;-79
2020/12/29 02:07:52;;;;;;;14.43;3.70;;;10.80;83.90;;;;;;5001907;28;20053;-79
2020/12/29 02:10:58;;;;;;;17.85;3.30;;;10.70;83.60;;;;;;5014216;28;20048;-79
2020/12/29 02:14:04;;;;;;;14.57;3.33;;;10.70;84.80;;;;;;5013911;28;20052;-79
2020/12/29 02:17:08;;;;;;;16.67;2.38;;;10.70;84.60;;;;;;5014178;28;20373;-80
2020/12/29 02:20:12;;;;;;;10.48;2.90;;;10.70;85.00;;;;;;5014212;28;20049;-81
2020/12/29 02:23:16;;;;;;;10.93;2.63;;;10.70;85.10;;;;;;5013366;28;20040;-80
2020/12/29 02:26:25;;;;;;;20.60;3.50;;;10.60;85.20;;;;;;5013263;28;20531;-80
2020/12/29 02:29:31;;;;;;;13.90;2.85;;;10.60;85.10;;;;;;5024359;28;20061;-81
2020/12/29 02:32:37;;;;;;;13.02;3.85;;;10.40;85.40;;;;;;5013970;28;20049;-80
2020/12/29 02:35:41;;;;;;;11.38;3.50;;;10.30;86.10;;;;;;5013553;28;20064;-80
2020/12/29 02:38:45;;;;;;;13.00;3.40;;;10.20;86.40;;;;;;5013915;28;20411;-80
2020/12/29 02:41:49;;;;;;;20.67;3.97;;;10.10;86.60;;;;;;5013550;28;20052;-81
2020/12/29 02:44:53;;;;;;;14.23;4.57;;;10.10;86.80;;;;;;5013390;28;20393;-80
2020/12/29 02:48:00;;;;;;;15.15;3.70;;;10.10;86.90;;;;;;5012692;28;20057;-80
2020/12/29 02:51:07;;;;;;;11.63;3.85;;;10.00;86.30;;;;;;5013509;28;20041;-81
2020/12/29 02:54:13;;;;;;;15.40;3.75;;;10.00;86.30;;;;;;5012570;28;20056;-80
2020/12/29 02:57:17;;;;;;;13.63;4.07;;;9.80;86.70;;;;;;5013403;28;20049;-80
2020/12/29 03:00:22;;;;;;;16.95;4.47;;;9.70;87.50;;;;;;5013379;28;20389;-80
2020/12/29 03:03:26;;;;;;;14.88;3.72;;;9.60;87.20;;;;;;5012521;28;20511;-80
2020/12/29 03:06:30;;;;;;;15.05;4.40;;;9.60;87.60;;;;;;5013244;28;20034;-80
2020/12/29 03:09:34;;;;;;;13.38;4.13;;;9.60;87.80;;;;;;5013361;28;20045;-80
2020/12/29 03:12:39;;;;;;;13.68;4.18;;;9.50;87.00;;;;;;5013158;28;20050;-80
2020/12/29 03:15:43;;;;;;;24.50;4.38;;;9.50;86.90;;;;;;5013207;28;20042;-80
2020/12/29 03:18:48;;;;;;;18.80;4.55;;;9.40;87.70;;;;;;5013055;28;20533;-80
2020/12/29 03:21:52;;;;;;;22.40;4.57;;;9.30;88.60;;;;;;5012402;28;20038;-80
2020/12/29 03:24:56;;;;;;;16.42;4.60;;;9.30;89.20;;;;;;5012896;28;20048;-80
2020/12/29 03:28:00;;;;;;;23.90;5.35;;;9.30;89.70;;;;;;5011891;28;20050;-80
2020/12/29 03:31:05;;;;;;;18.40;4.65;;;9.40;89.70;;;;;;5012534;28;20427;-80
2020/12/29 03:34:10;;;;;;;20.48;6.45;;;9.40;89.60;;;;;;5012331;28;20042;-81
2020/12/29 03:37:16;;;;;;;15.55;4.50;;;9.40;89.80;;;;;;5012493;28;20030;-81
2020/12/29 03:40:20;;;;;;;16.05;4.72;;;9.50;89.70;;;;;;5012617;28;20042;-80
2020/12/29 03:43:24;;;;;;;21.40;6.60;;;9.60;88.80;;;;;;5011416;28;20041;-80
2020/12/29 03:46:28;;;;;;;20.15;4.72;;;9.50;87.50;;;;;;5011607;28;20038;-80
2020/12/29 03:49:32;;;;;;;18.27;4.70;;;9.40;88.60;;;;;;5012291;28;20061;-79
2020/12/29 03:52:36;;;;;;;21.95;5.70;;;9.30;89.50;;;;;;5014615;28;20477;-79
2020/12/29 03:55:40;;;;;;;18.38;4.80;;;9.30;89.60;;;;;;5012082;28;20053;-79
2020/12/29 03:58:44;;;;;;;16.55;4.57;;;9.30;89.80;;;;;;5012106;28;20045;-79
2020/12/29 04:01:48;;;;;;;14.82;4.50;;;9.30;89.00;;;;;;5012200;28;20508;-79
2020/12/29 04:04:52;;;;;;;13.95;4.35;;;9.40;89.40;;;;;;5012212;28;20046;-79
2020/12/29 04:07:57;;;;;;;14.18;4.90;;;9.50;87.90;;;;;;5011935;28;20489;-78
2020/12/29 04:11:01;;;;;;;16.80;4.75;;;9.50;88.00;;;;;;5012200;28;20378;-79
2020/12/29 04:14:05;;;;;;;12.07;3.88;;;9.50;87.80;;;;;;5011333;28;20055;-78
2020/12/29 04:17:08;;;;;;;15.75;4.35;;;9.50;88.00;;;;;;5011966;28;20033;-78
2020/12/29 04:20:13;;;;;;;14.13;4.10;;;9.60;86.80;;;;;;5011993;28;20038;-78
2020/12/29 04:23:17;;;;;;;21.02;4.30;;;9.60;86.30;;;;;;5011815;28;20048;-78
2020/12/29 04:26:21;;;;;;;13.45;4.13;;;9.60;86.50;;;;;;5011406;28;20042;-79
2020/12/29 04:29:27;;;;;;;14.82;3.85;;;9.60;85.80;;;;;;5011801;28;20515;-79
2020/12/29 04:32:31;;;;;;;14.75;4.57;;;9.70;85.10;;;;;;5010882;28;20033;-79
2020/12/29 04:35:35;;;;;;;20.52;4.22;;;9.80;84.70;;;;;;5010799;28;20524;-79
2020/12/29 04:38:39;;;;;;;18.58;4.50;;;9.70;84.80;;;;;;5010635;28;20049;-79
2020/12/29 04:41:48;;;;;;;21.23;4.07;;;9.60;85.30;;;;;;5011730;28;20052;-79
2020/12/29 04:44:52;;;;;;;15.38;3.45;;;9.50;85.20;;;;;;5011524;28;20060;-79
2020/12/29 04:47:56;;;;;;;9.00;2.97;;;9.50;85.40;;;;;;5011307;28;20055;-78
2020/12/29 04:51:07;;;;;;;19.33;3.65;;;9.70;84.50;;;;;;5011581;28;20042;-78
2020/12/29 04:54:17;;;;;;;11.68;3.03;;;9.80;84.00;;;;;;5010948;28;20624;-79
2020/12/29 04:57:23;;;;;;;11.88;3.25;;;9.90;83.50;;;;;;5011746;28;20042;-79
2020/12/29 05:00:28;;;;;;;12.18;2.85;;;9.90;83.40;;;;;;5011763;28;20045;-79
2020/12/29 05:03:45;;;;;;;15.35;3.10;;;9.90;83.70;;;;;;5011489;28;20042;-79
2020/12/29 05:06:53;;;;;;;14.20;3.03;;;9.80;84.60;;;;;;5011488;28;20042;-79
2020/12/29 05:10:06;;;;;;;15.25;3.80;;;9.90;85.10;;;;;;5011671;28;20533;-79
2020/12/29 05:13:10;;;;;;;17.08;4.28;;;9.90;85.50;;;;;;5010211;28;20622;-79
2020/12/29 05:16:15;;;;;;;15.60;4.03;;;9.90;85.40;;;;;;5011556;28;20046;-79
2020/12/29 05:19:20;;;;;;;26.02;3.70;;;10.00;85.80;;;;;;5011533;28;20543;-79
2020/12/29 05:22:24;;;;;;;18.60;3.65;;;10.00;86.30;;;;;;5010702;28;20312;-81
2020/12/29 05:25:28;;;;;;;12.13;3.05;;;9.90;87.50;;;;;;5012249;28;20045;-80
2020/12/29 05:28:33;;;;;;;13.38;3.38;;;10.00;88.50;;;;;;5014013;28;20409;-81
2020/12/29 05:31:37;;;;;;;21.20;3.38;;;10.10;88.00;;;;;;5015026;28;20045;-80
2020/12/29 05:34:46;;;;;;;20.38;3.22;;;10.10;88.30;;;;;;5014926;28;20044;-81
2020/12/29 05:37:52;;;;;;;16.67;3.08;;;10.10;88.90;;;;;;5014269;28;20052;-81
2020/12/29 05:40:56;;;;;;;12.88;3.05;;;10.10;89.60;;;;;;5014730;28;20033;-81
2020/12/29 05:44:01;;;;;;;17.42;3.20;;;10.20;89.50;;;;;;5014606;28;20555;-81
2020/12/29 05:47:05;;;;;;;12.98;3.15;;;10.20;89.50;;;;;;5014690;28;20056;-81
2020/12/29 05:50:09;;;;;;;11.60;2.50;;;10.10;90.20;;;;;;5013611;28;20052;-81
2020/12/29 05:53:14;;;;;;;20.55;4.47;;;10.00;90.20;;;;;;5013859;28;20061;-80
2020/12/29 05:56:19;;;;;;;17.58;7.43;;;10.00;90.50;;;;;;5013427;28;20041;-80
2020/12/29 05:59:23;;;;;;;12.82;3.20;;;10.00;90.70;;;;;;5014530;28;20041;-80
2020/12/29 06:02:27;;;;;;;9.70;2.60;;;10.00;90.50;;;;;;5014457;28;20389;-80
2020/12/29 06:05:35;;;;;;;15.88;2.42;;;10.00;90.40;;;;;;5013668;28;20049;-80
2020/12/29 06:08:42;;;;;;;14.45;2.50;;;10.00;90.70;;;;;;5013223;28;20452;-80
2020/12/29 06:11:49;;;;;;;12.00;3.63;;;10.10;90.50;;;;;;5014114;28;20228;-80
2020/12/29 06:14:57;;;;;;;11.82;3.45;;;10.00;90.70;;;;;;5014115;28;20052;-81
2020/12/29 06:18:07;;;;;;;13.35;3.20;;;9.90;91.00;;;;;;5014258;28;20044;-81
2020/12/29 06:21:11;;;;;;;8.95;2.63;;;9.90;90.80;;;;;;5013135;28;20504;-80
2020/12/29 06:24:16;;;;;;;11.57;2.45;;;10.00;90.60;;;;;;5013646;28;20030;-80
2020/12/29 06:27:30;;;;;;;13.30;3.22;;;10.00;90.50;;;;;;5013734;28;20044;-80
2020/12/29 06:30:35;;;;;;;13.75;3.88;;;9.90;90.50;;;;;;5013123;28;20045;-81
2020/12/29 06:33:39;;;;;;;13.82;3.63;;;9.90;90.60;;;;;;5024332;28;20393;-80
2020/12/29 06:36:44;;;;;;;12.93;2.80;;;9.90;90.80;;;;;;5014029;28;20049;-81
2020/12/29 06:40:08;;;;;;;11.90;3.28;;;9.80;90.60;;;;;;5012751;28;20045;-81
2020/12/29 06:43:12;;;;;;;12.77;3.60;;;9.90;90.80;;;;;;5013260;28;20038;-81
2020/12/29 06:46:18;;;;;;;12.52;3.42;;;9.90;90.80;;;;;;5013613;28;20389;-81
2020/12/29 06:49:22;;;;;;;12.88;3.78;;;9.80;90.60;;;;;;5013368;28;20046;-69
2020/12/29 06:52:32;;;;;;;11.48;3.22;;;9.80;91.40;;;;;;5013510;28;20504;-69
2020/12/29 06:55:47;;;;;;;14.68;3.83;;;9.90;91.00;;;;;;5013287;28;20042;-69
2020/12/29 06:58:55;;;;;;;21.60;11.68;;;10.00;90.50;;;;;;5012492;28;20041;-68
2020/12/29 07:01:59;;;;;;;16.75;4.82;;;10.10;90.50;;;;;;5012173;28;20045;-69
2020/12/29 07:05:23;;;;;;;12.10;4.40;;;10.00;90.70;;;;;;5012973;28;20497;-68
2020/12/29 07:08:36;;;;;;;16.02;5.40;;;10.10;90.70;;;;;;5012840;28;20061;-68
2020/12/29 07:12:20;;;;;;;13.38;4.22;;;10.10;90.60;;;;;;5012872;28;20060;-69
2020/12/29 07:15:24;;;;;;;12.90;4.47;;;10.10;90.70;;;;;;5013082;28;20045;-69
2020/12/29 07:18:29;;;;;;;15.73;4.30;;;10.10;90.60;;;;;;5013011;28;20060;-67
2020/12/29 07:21:34;;;;;;;12.88;4.80;;;10.20;90.60;;;;;;5012809;28;20052;-70
2020/12/29 07:24:38;;;;;;;14.05;4.45;;;10.20;90.40;;;;;;5012315;28;20049;-68
2020/12/29 07:27:43;;;;;;;19.35;5.13;;;10.30;90.40;;;;;;5012266;28;20052;-69
2020/12/29 07:30:49;;;;;;;13.20;5.68;;;10.40;90.30;;;;;;5012591;28;20048;-74
2020/12/29 07:33:54;;;;;;;34.65;20.80;;;10.60;90.10;;;;;;5012644;28;20547;-77
2020/12/29 07:36:59;;;;;;;16.23;4.53;;;10.70;90.30;;;;;;5012751;28;20044;-75
2020/12/29 07:40:03;;;;;;;10.93;4.72;;;10.80;90.10;;;;;;5012560;28;20049;-75
2020/12/29 07:43:08;;;;;;;13.02;4.85;;;10.90;89.90;;;;;;5012279;28;20061;-73
2020/12/29 07:46:12;;;;;;;13.68;4.45;;;11.00;89.30;;;;;;5012192;28;20053;-68
2020/12/29 07:49:16;;;;;;;15.45;4.50;;;11.20;89.40;;;;;;5011974;28;20049;-67
2020/12/29 07:52:24;;;;;;;19.17;5.95;;;11.20;87.90;;;;;;5012457;28;20519;-68
2020/12/29 07:55:28;;;;;;;18.60;6.55;;;11.40;87.50;;;;;;5012108;28;20041;-68
2020/12/29 07:58:32;;;;;;;14.65;5.25;;;11.50;87.20;;;;;;5014890;28;20045;-68
2020/12/29 08:01:55;;;;;;;13.88;4.30;;;11.50;86.90;;;;;;4999777;28;20049;-72
2020/12/29 08:05:00;;;;;;;15.18;4.90;;;11.60;87.10;;;;;;5012145;28;20056;-73
2020/12/29 08:08:06;;;;;;;44.25;27.35;;;11.60;86.90;;;;;;5011855;28;20060;-68
2020/12/29 08:11:11;;;;;;;28.38;18.05;;;11.70;87.10;;;;;;5012080;28;20041;-68
2020/12/29 08:14:15;;;;;;;25.25;11.35;;;11.80;87.10;;;;;;5011737;28;20057;-68
2020/12/29 08:17:19;;;;;;;19.48;9.90;;;11.90;87.10;;;;;;5011638;28;20054;-71
2020/12/29 08:20:23;;;;;;;16.30;8.27;;;12.00;87.00;;;;;;5011746;28;20041;-71
2020/12/29 08:23:28;;;;;;;17.40;7.63;;;12.10;87.00;;;;;;5011853;28;20044;-75
2020/12/29 08:26:33;;;;;;;27.25;11.13;;;12.10;86.90;;;;;;5021625;28;20065;-69
2020/12/29 08:29:38;;;;;;;30.45;12.43;;;12.10;86.90;;;;;;5012660;28;20057;-72
2020/12/29 08:32:45;;;;;;;29.13;13.10;;;12.10;87.50;;;;;;5011525;28;20057;-71
2020/12/29 08:35:55;;;;;;;31.75;12.90;;;12.10;87.70;;;;;;5012621;28;20044;-65
2020/12/29 08:39:33;;;;;;;26.33;10.13;;;12.10;88.60;;;;;;5010834;28;20048;-65
2020/12/29 08:42:43;;;;;;;21.77;8.57;;;12.30;87.30;;;;;;5010468;28;20045;-65
2020/12/29 08:45:49;;;;;;;24.25;9.20;;;12.50;87.10;;;;;;5011085;28;20061;-65
2020/12/29 08:48:54;;;;;;;27.20;11.35;;;12.70;85.60;;;;;;5011090;28;20053;-65
2020/12/29 08:51:58;;;;;;;17.30;9.15;;;12.90;83.60;;;;;;5011505;28;20064;-65
2020/12/29 08:55:02;;;;;;;23.45;7.90;;;13.10;83.40;;;;;;5011188;28;20049;-64
2020/12/29 08:58:06;;;;;;;13.95;7.32;;;13.20;83.20;;;;;;5011064;28;20037;-65
2020/12/29 09:01:11;;;;;;;19.73;7.35;;;13.40;83.00;;;;;;5012155;28;20504;-65
2020/12/29 09:04:28;;;;;;;23.15;9.25;;;13.40;82.30;;;;;;5014980;28;20033;-65
2020/12/29 09:07:42;;;;;;;20.63;8.55;;;13.50;82.80;;;;;;5015411;28;20041;-65
2020/12/29 09:10:46;;;;;;;22.15;6.30;;;13.60;83.50;;;;;;5015061;28;20406;-65
2020/12/29 09:14:03;;;;;;;10.18;4.65;;;13.70;83.30;;;;;;5015104;28;20057;-65
2020/12/29 09:17:08;;;;;;;11.63;4.07;;;13.70;81.90;;;;;;5014940;28;20048;-65
2020/12/29 09:20:32;;;;;;;10.63;3.42;;;13.80;80.80;;;;;;5015007;28;20056;-65
2020/12/29 09:23:36;;;;;;;8.70;2.53;;;14.10;78.20;;;;;;5014758;28;20045;-65
2020/12/29 09:26:50;;;;;;;16.05;3.65;;;14.30;76.40;;;;;;5014883;28;20037;-65
2020/12/29 09:29:54;;;;;;;16.92;3.25;;;14.50;74.80;;;;;;5014798;28;20609;-64
2020/12/29 09:32:58;;;;;;;29.52;8.80;;;14.70;73.00;;;;;;5014828;28;20065;-71
2020/12/29 09:36:03;;;;;;;23.73;4.10;;;14.90;72.70;;;;;;5014260;28;20037;-69
2020/12/29 09:39:07;;;;;;;18.10;3.03;;;15.20;72.80;;;;;;5014135;28;20041;-70
2020/12/29 09:42:11;;;;;;;23.55;3.67;;;15.20;70.60;;;;;;5012949;28;20045;-71
2020/12/29 09:45:19;;;;;;;8.77;2.17;;;15.30;69.30;;;;;;5014467;28;20048;-67
2020/12/29 09:48:24;;;;;;;10.75;2.97;;;15.40;69.90;;;;;;5014368;28;20046;-66
2020/12/29 09:51:28;;;;;;;15.90;2.40;;;15.50;70.80;;;;;;5014479;28;20045;-68
2020/12/29 09:54:32;;;;;;;13.75;2.60;;;15.70;70.20;;;;;;5014060;28;20053;-69
2020/12/29 09:57:36;;;;;;;14.73;2.20;;;15.80;69.90;;;;;;5014248;28;20053;-67
2020/12/29 10:00:40;;;;;;;12.70;2.25;;;15.90;69.40;;;;;;5014268;28;20057;-70
2020/12/29 10:03:44;;;;;;;17.33;3.05;;;16.00;68.20;;;;;;5013460;28;20049;-69
2020/12/29 10:06:49;;;;;;;18.42;2.83;;;16.20;68.40;;;;;;5014357;28;20053;-67
2020/12/29 10:09:53;;;;;;;22.73;3.03;;;16.30;68.80;;;;;;5014271;28;20064;-65
2020/12/29 10:12:58;;;;;;;8.55;2.50;;;16.30;68.00;;;;;;5012865;28;20064;-66
2020/12/29 10:16:02;;;;;;;21.83;4.25;;;16.40;68.30;;;;;;5014248;28;20042;-65
2020/12/29 10:19:08;;;;;;;23.17;4.28;;;16.50;68.20;;;;;;5012981;28;20092;-69
2020/12/29 10:22:12;;;;;;;19.23;3.25;;;16.70;68.00;;;;;;5013579;28;20045;-67
2020/12/29 10:25:19;;;;;;;21.30;2.97;;;16.80;66.40;;;;;;5013623;28;20053;-67
2020/12/29 10:28:26;;;;;;;12.77;2.20;;;16.90;65.80;;;;;;5013650;28;20057;-69
2020/12/29 10:31:32;;;;;;;12.10;2.55;;;17.00;63.00;;;;;;5013742;28;20044;-69
2020/12/29 10:34:37;;;;;;;13.75;2.22;;;17.10;60.30;;;;;;5012534;28;20045;-69
2020/12/29 10:37:42;;;;;;;13.88;1.73;;;17.10;58.80;;;;;;5013641;28;20049;-66
2020/12/29 10:40:47;;;;;;;12.77;1.90;;;17.10;58.70;;;;;;5013713;28;20493;-67
2020/12/29 10:43:51;;;;;;;11.60;2.08;;;16.90;58.80;;;;;;5013118;28;20048;-68
2020/12/29 10:46:56;;;;;;;13.35;2.05;;;16.90;59.90;;;;;;5023768;28;20413;-68
2020/12/29 10:50:00;;;;;;;14.93;2.25;;;16.70;60.40;;;;;;5013368;28;20065;-69
2020/12/29 10:53:05;;;;;;;20.27;2.63;;;16.70;61.10;;;;;;5012394;28;20531;-66
2020/12/29 10:56:11;;;;;;;22.05;2.47;;;16.80;61.20;;;;;;5013500;28;20061;-69
2020/12/29 10:59:16;;;;;;;14.68;3.22;;;16.90;61.30;;;;;;5013399;28;20049;-67
2020/12/29 11:02:20;;;;;;;20.02;3.00;;;17.10;61.90;;;;;;5013268;28;20053;-67
2020/12/29 11:05:24;;;;;;;12.05;3.47;;;17.20;61.80;;;;;;5013246;28;20053;-68
2020/12/29 11:08:28;;;;;;;13.63;2.55;;;17.20;60.20;;;;;;5013020;28;20534;-66
2020/12/29 11:11:32;;;;;;;9.95;1.95;;;17.30;59.80;;;;;;5012897;28;20044;-66
2020/12/29 11:14:36;;;;;;;18.33;2.65;;;17.40;60.40;;;;;;5012647;28;20043;-68
2020/12/29 11:17:40;;;;;;;15.20;2.15;;;17.40;60.30;;;;;;5012766;28;20049;-69
2020/12/29 11:20:49;;;;;;;8.77;1.85;;;17.50;61.20;;;;;;5010972;28;20056;-68
2020/12/29 11:23:53;;;;;;;11.18;2.55;;;17.50;61.20;;;;;;5012536;28;20053;-67
2020/12/29 11:26:57;;;;;;;16.35;2.88;;;17.50;62.10;;;;;;5011808;28;20064;-68
2020/12/29 11:30:01;;;;;;;15.43;3.42;;;17.40;62.10;;;;;;5012644;28;20045;-67
2020/12/29 11:33:05;;;;;;;14.68;2.97;;;17.30;62.70;;;;;;5012601;28;20099;-69
2020/12/29 11:36:09;;;;;;;11.25;2.65;;;17.10;63.10;;;;;;5012565;28;20064;-71
2020/12/29 11:39:13;;;;;;;18.80;2.63;;;17.00;62.70;;;;;;5012158;28;20053;-68
2020/12/29 11:42:17;;;;;;;8.55;2.35;;;17.00;61.90;;;;;;5012293;28;20068;-68
2020/12/29 11:45:21;;;;;;;9.45;2.30;;;16.90;62.00;;;;;;5012479;28;20053;-73
2020/12/29 11:48:25;;;;;;;8.38;1.85;;;16.80;61.60;;;;;;5011068;28;20060;-70
2020/12/29 11:51:29;;;;;;;10.10;2.10;;;16.70;59.30;;;;;;5011374;28;20484;-64
2020/12/29 11:54:33;;;;;;;10.23;1.70;;;16.60;61.30;;;;;;5011594;28;20056;-66
2020/12/29 11:57:37;;;;;;;12.77;2.17;;;16.60;61.20;;;;;;5021619;28;20045;-71
2020/12/29 12:00:41;;;;;;;10.88;2.40;;;16.60;61.00;;;;;;5011903;28;20045;-71
2020/12/29 12:03:45;;;;;;;11.13;2.08;;;16.60;61.90;;;;;;5011879;28;20053;-71
2020/12/29 12:06:49;;;;;;;7.28;1.80;;;16.60;59.70;;;;;;5011740;28;20041;-69
2020/12/29 12:09:53;;;;;;;11.82;1.88;;;16.70;59.70;;;;;;5022071;28;20061;-67
2020/12/29 12:12:57;;;;;;;8.73;1.77;;;16.70;59.60;;;;;;5011417;28;20512;-69
2020/12/29 12:16:01;;;;;;;8.68;2.30;;;16.70;61.10;;;;;;5011461;28;20045;-70
2020/12/29 12:19:05;;;;;;;8.00;2.33;;;16.70;59.90;;;;;;5011302;28;20277;-68
2020/12/29 12:22:09;;;;;;;16.70;2.78;;;16.60;58.80;;;;;;5011602;28;20072;-69
2020/12/29 12:25:14;;;;;;;12.20;2.40;;;16.50;59.40;;;;;;5022066;28;20044;-69
2020/12/29 12:28:19;;;;;;;12.40;2.63;;;16.40;59.60;;;;;;5011367;28;20053;-69
2020/12/29 12:31:23;;;;;;;20.33;6.00;;;16.30;60.00;;;;;;5021746;28;20045;-70
2020/12/29 12:34:27;;;;;;;16.38;3.53;;;16.30;61.50;;;;;;5011463;28;20421;-70
2020/12/29 12:37:31;;;;;;;16.48;3.38;;;16.20;62.10;;;;;;5011266;28;20057;-69
2020/12/29 12:40:35;;;;;;;11.13;2.47;;;16.20;63.00;;;;;;5011470;28;20045;-69
2020/12/29 12:43:39;;;;;;;30.75;10.48;;;16.20;63.50;;;;;;5011839;28;20052;-78
2020/12/29 12:46:43;;;;;;;15.50;4.00;;;16.20;69.20;;;;;;5010575;28;20041;-68
2020/12/29 12:49:47;;;;;;;10.15;2.78;;;16.20;64.20;;;;;;5011288;28;20052;-67
2020/12/29 12:52:51;;;;;;;10.25;2.08;;;16.10;64.10;;;;;;5011076;28;20044;-68
2020/12/29 12:55:55;;;;;;;12.23;3.15;;;16.10;64.20;;;;;;5011307;28;20104;-68
2020/12/29 12:58:59;;;;;;;10.85;2.58;;;16.10;64.80;;;;;;5011364;28;20044;-68
2020/12/29 13:02:04;;;;;;;10.07;2.10;;;16.10;64.00;;;;;;5011663;28;20397;-68
2020/12/29 13:05:08;;;;;;;14.68;2.38;;;16.00;64.90;;;;;;5011550;28;20113;-68
2020/12/29 13:08:12;;;;;;;24.73;14.38;;;16.00;66.40;;;;;;5011361;28;20061;-68
2020/12/29 13:11:17;;;;;;;13.70;3.05;;;16.00;66.80;;;;;;5011267;28;20041;-68
2020/12/29 13:14:21;;;;;;;29.92;15.63;;;15.90;65.60;;;;;;5011880;28;20046;-69
2020/12/29 13:17:26;;;;;;;13.43;2.58;;;15.90;66.70;;;;;;5010768;28;20053;-68
2020/12/29 13:20:30;;;;;;;9.95;2.00;;;15.90;66.60;;;;;;5010644;28;20048;-69
2020/12/29 13:23:34;;;;;;;9.98;2.35;;;15.80;66.40;;;;;;5010415;28;20038;-71
2020/12/29 13:26:38;;;;;;;12.20;1.95;;;15.80;69.00;;;;;;5011757;28;20053;-72
2020/12/29 13:29:42;;;;;;;8.68;2.25;;;15.70;69.80;;;;;;5010529;28;20053;-72
2020/12/29 13:32:46;;;;;;;12.27;2.17;;;15.60;71.90;;;;;;5011081;28;20045;-71
2020/12/29 13:35:50;;;;;;;9.75;2.45;;;15.50;73.90;;;;;;5011294;28;20065;-71
2020/12/29 13:38:54;;;;;;;12.73;2.50;;;15.40;75.80;;;;;;5011187;28;20053;-71
2020/12/29 13:41:59;;;;;;;10.05;2.28;;;15.30;77.10;;;;;;5011147;28;20048;-72
2020/12/29 13:45:05;;;;;;;9.63;3.22;;;15.20;78.00;;;;;;5011103;28;20041;-72
2020/12/29 13:48:10;;;;;;;34.40;11.38;;;15.20;79.00;;;;;;5011405;28;20038;-71
2020/12/29 13:51:14;;;;;;;9.80;3.88;;;15.20;78.80;;;;;;5014739;28;20041;-70
2020/12/29 13:54:20;;;;;;;12.55;4.35;;;15.20;76.70;;;;;;5014317;28;20517;-71
2020/12/29 13:57:25;;;;;;;12.10;4.43;;;15.20;78.00;;;;;;5014399;28;20064;-71
2020/12/29 14:00:28;;;;;;;18.75;4.05;;;15.20;77.90;;;;;;5014518;28;20109;-71
2020/12/29 14:03:32;;;;;;;7.50;2.88;;;15.20;78.30;;;;;;5014329;28;20049;-71
2020/12/29 14:06:36;;;;;;;6.95;2.63;;;15.20;75.60;;;;;;5014300;28;20049;-71
2020/12/29 14:09:40;;;;;;;6.45;2.30;;;15.20;76.60;;;;;;5013419;28;20072;-73
2020/12/29 14:12:44;;;;;;;17.63;6.32;;;15.20;76.80;;;;;;5012243;28;20054;-69
2020/12/29 14:15:51;;;;;;;5.72;1.73;;;15.20;74.30;;;;;;5012595;28;20049;-70
2020/12/29 14:18:55;;;;;;;8.68;2.72;;;15.20;73.20;;;;;;5014354;28;20042;-71
2020/12/29 14:22:00;;;;;;;7.93;2.15;;;15.10;73.70;;;;;;5014068;28;20049;-71
2020/12/29 14:25:04;;;;;;;7.82;3.00;;;15.10;73.70;;;;;;5024451;28;20045;-69
2020/12/29 14:28:08;;;;;;;8.23;2.53;;;15.10;75.00;;;;;;5013956;28;20128;-72
2020/12/29 14:31:12;;;;;;;7.68;1.90;;;15.10;75.90;;;;;;5012656;28;20046;-68
2020/12/29 14:34:16;;;;;;;6.35;1.80;;;15.00;77.00;;;;;;5013758;28;20034;-69
2020/12/29 14:37:20;;;;;;;12.82;2.25;;;15.00;78.00;;;;;;5013643;28;20064;-76
2020/12/29 14:40:24;;;;;;;9.55;2.28;;;14.90;78.80;;;;;;5013601;28;20045;-70
2020/12/29 14:43:28;;;;;;;9.27;2.22;;;14.90;79.60;;;;;;5013634;28;20054;-69
2020/12/29 14:46:32;;;;;;;11.40;2.33;;;14.90;80.90;;;;;;5013741;28;20042;-70
2020/12/29 14:49:36;;;;;;;10.05;2.78;;;14.80;81.50;;;;;;5013347;28;20061;-71
2020/12/29 14:52:40;;;;;;;14.25;2.78;;;14.80;81.20;;;;;;5012742;28;20044;-70
2020/12/29 14:55:44;;;;;;;21.92;11.85;;;14.80;81.10;;;;;;5024153;28;20044;-72
2020/12/29 14:58:48;;;;;;;18.70;2.58;;;14.80;81.40;;;;;;5013213;28;20044;-70
2020/12/29 15:01:52;;;;;;;13.45;2.97;;;14.80;78.80;;;;;;5013228;28;20053;-69
2020/12/29 15:04:56;;;;;;;12.88;2.58;;;14.70;77.10;;;;;;5013464;28;20096;-69
2020/12/29 15:08:00;;;;;;;14.80;2.45;;;14.70;77.50;;;;;;5012871;28;20440;-68
2020/12/29 15:11:04;;;;;;;11.07;2.35;;;14.70;75.30;;;;;;5013263;28;20385;-68
2020/12/29 15:14:08;;;;;;;11.70;3.08;;;14.60;75.40;;;;;;5012800;28;20064;-69
2020/12/29 15:17:15;;;;;;;9.60;2.55;;;14.60;75.40;;;;;;5023309;28;20071;-69
2020/12/29 15:20:28;;;;;;;9.82;2.50;;;14.60;73.80;;;;;;5023024;28;20056;-69
2020/12/29 15:23:32;;;;;;;8.77;2.90;;;14.60;74.60;;;;;;5012788;28;20042;-70
2020/12/29 15:26:36;;;;;;;30.42;16.13;;;14.50;75.00;;;;;;5000701;28;20042;-69
2020/12/29 15:29:42;;;;;;;13.68;2.67;;;14.60;76.20;;;;;;5012437;28;20060;-68
2020/12/29 15:32:45;;;;;;;11.13;3.08;;;14.60;76.70;;;;;;5012855;28;20385;-69
2020/12/29 15:35:49;;;;;;;13.52;3.22;;;14.60;78.00;;;;;;5012729;28;20492;-70
2020/12/29 15:38:53;;;;;;;13.43;3.50;;;14.50;79.60;;;;;;5012433;28;20045;-70
2020/12/29 15:41:57;;;;;;;10.63;3.47;;;14.50;80.80;;;;;;5011895;28;20041;-68
2020/12/29 15:45:02;;;;;;;23.17;5.47;;;14.50;82.30;;;;;;5012320;28;20041;-67
2020/12/29 15:48:06;;;;;;;15.00;3.20;;;14.50;83.40;;;;;;5012410;28;20041;-72
2020/12/29 15:51:13;;;;;;;14.63;3.55;;;14.40;85.40;;;;;;5012359;28;20057;-73
2020/12/29 15:54:17;;;;;;;16.80;5.82;;;14.30;87.00;;;;;;5012489;28;20053;-72
2020/12/29 15:57:21;;;;;;;14.27;4.18;;;14.20;89.00;;;;;;5011498;28;20049;-67